Time;durP1;ratioP1;P1;durP2;ratioP2;P2;SDS_P1;SDS_P2;PMS_P1;PMS_P2;Temp;Humidity;BMP_temperature;BMP_pressure;BME280_temperature;BME280_humidity;BME280_pressure;Samples;Min_cycle;Max_cycle;Signal;HPM_P1;HPM_P2
2022/07/21 00:00:51;;;;;;;16.10;12.25;;;20.20;99.90;;;;;;5035966;28;20274;-82
2022/07/21 00:03:17;;;;;;;15.48;10.75;;;20.20;99.90;;;;;;5035663;28;20534;-80
2022/07/21 00:05:43;;;;;;;18.05;11.10;;;20.20;99.90;;;;;;5035954;28;20172;-83
2022/07/21 00:08:09;;;;;;;14.52;11.70;;;20.30;99.90;;;;;;5017827;28;20160;-82
2022/07/21 00:10:34;;;;;;;13.48;11.50;;;20.40;99.90;;;;;;5017713;28;20565;-83
2022/07/21 00:13:00;;;;;;;18.02;11.98;;;20.40;99.90;;;;;;5035356;28;20173;-81
2022/07/21 00:15:27;;;;;;;19.65;12.20;;;20.50;99.90;;;;;;5035426;28;20175;-82
2022/07/21 00:17:53;;;;;;;12.68;11.20;;;20.30;99.90;;;;;;5035403;28;20199;-81
2022/07/21 00:20:19;;;;;;;12.85;10.65;;;20.30;99.90;;;;;;5035350;28;20659;-82
2022/07/21 00:22:45;;;;;;;15.35;11.50;;;20.30;99.90;;;;;;5035238;28;20222;-81
2022/07/21 00:25:12;;;;;;;13.00;10.73;;;20.20;99.90;;;;;;5035371;28;20214;-81
2022/07/21 00:27:38;;;;;;;14.35;11.05;;;20.10;99.90;;;;;;5035418;28;20164;-82
2022/07/21 00:30:06;;;;;;;12.15;10.90;;;20.00;99.90;;;;;;5035332;28;20184;-81
2022/07/21 00:32:32;;;;;;;14.95;10.52;;;20.10;99.90;;;;;;5035033;28;20171;-81
2022/07/21 00:34:58;;;;;;;13.43;10.52;;;20.10;99.90;;;;;;5038120;28;20250;-81
2022/07/21 00:37:25;;;;;;;21.92;11.85;;;20.00;99.90;;;;;;5017931;28;20168;-82
2022/07/21 00:39:51;;;;;;;12.30;11.05;;;20.10;99.90;;;;;;5034972;28;20203;-81
2022/07/21 00:42:24;;;;;;;11.68;10.63;;;20.20;99.90;;;;;;5035105;28;20168;-81
2022/07/21 00:44:50;;;;;;;18.88;11.07;;;20.20;99.90;;;;;;5035030;28;20559;-82
2022/07/21 00:47:25;;;;;;;13.57;11.65;;;20.20;99.90;;;;;;5035228;28;20168;-81
2022/07/21 00:49:52;;;;;;;12.55;11.35;;;20.10;99.90;;;;;;5035062;28;20187;-82
2022/07/21 00:52:17;;;;;;;17.20;11.18;;;20.10;99.90;;;;;;5035163;28;20164;-81
2022/07/21 00:54:44;;;;;;;12.10;9.98;;;20.10;99.90;;;;;;5017207;28;20222;-81
2022/07/21 00:57:11;;;;;;;17.15;12.02;;;20.10;99.90;;;;;;5034747;28;20160;-83
2022/07/21 00:59:37;;;;;;;15.00;11.18;;;20.00;99.90;;;;;;5035165;28;20167;-82
2022/07/21 01:02:03;;;;;;;14.77;10.95;;;20.10;99.90;;;;;;5034807;28;20171;-80
2022/07/21 01:04:29;;;;;;;12.10;10.65;;;20.10;99.90;;;;;;5034858;28;20636;-82
2022/07/21 01:06:55;;;;;;;11.15;10.15;;;20.20;99.90;;;;;;5034839;28;20175;-83
2022/07/21 01:09:22;;;;;;;18.17;11.40;;;20.20;99.90;;;;;;5016917;28;20255;-82
2022/07/21 01:11:48;;;;;;;11.40;10.18;;;20.10;99.90;;;;;;5034499;28;20250;-82
2022/07/21 01:14:14;;;;;;;13.00;10.75;;;20.10;99.90;;;;;;5016650;28;20215;-81
2022/07/21 01:16:41;;;;;;;12.93;9.05;;;20.00;99.90;;;;;;5034303;28;20576;-82
2022/07/21 01:19:07;;;;;;;10.50;9.38;;;20.00;99.90;;;;;;5034442;28;20164;-81
2022/07/21 01:21:38;;;;;;;11.05;9.90;;;20.10;99.90;;;;;;5016322;28;20269;-82
2022/07/21 01:24:05;;;;;;;13.40;11.05;;;20.10;99.90;;;;;;5034477;28;20179;-82
2022/07/21 01:26:38;;;;;;;13.75;10.48;;;20.10;99.90;;;;;;5034037;28;20164;-81
2022/07/21 01:29:04;;;;;;;12.68;9.98;;;20.20;99.90;;;;;;5034558;28;20219;-82
2022/07/21 01:31:30;;;;;;;14.63;11.27;;;20.20;99.90;;;;;;5034324;28;20218;-82
2022/07/21 01:33:55;;;;;;;19.13;10.07;;;20.10;99.90;;;;;;5033982;28;20231;-81
2022/07/21 01:36:21;;;;;;;14.05;9.75;;;20.10;99.90;;;;;;5034049;28;20222;-81
2022/07/21 01:41:32;;;;;;;16.42;10.30;;;20.00;99.90;;;;;;5034300;28;20234;-83
2022/07/21 01:44:05;;;;;;;11.88;10.00;;;20.10;99.90;;;;;;5034486;28;20164;-80
2022/07/21 01:46:32;;;;;;;12.23;11.00;;;20.10;99.90;;;;;;5034698;28;20172;-82
2022/07/21 01:48:58;;;;;;;15.98;11.35;;;20.00;99.90;;;;;;5034245;28;20195;-82
2022/07/21 01:51:24;;;;;;;11.88;10.10;;;19.90;99.90;;;;;;5033558;28;20234;-82
2022/07/21 01:53:50;;;;;;;19.92;10.70;;;19.90;99.90;;;;;;5016025;28;20273;-81
2022/07/21 01:56:21;;;;;;;12.73;10.02;;;19.80;99.90;;;;;;5015857;28;20168;-82
2022/07/21 01:58:47;;;;;;;13.90;10.25;;;19.70;99.90;;;;;;5033668;28;20172;-82
2022/07/21 02:01:14;;;;;;;12.77;10.60;;;19.70;99.90;;;;;;5033467;28;20183;-81
2022/07/21 02:03:40;;;;;;;12.65;10.93;;;19.70;99.90;;;;;;5033587;28;20186;-81
2022/07/21 02:06:07;;;;;;;19.23;10.63;;;19.70;99.90;;;;;;5033730;28;20621;-83
2022/07/21 02:08:33;;;;;;;11.30;9.57;;;19.70;99.90;;;;;;5015929;28;20338;-83
2022/07/21 02:10:59;;;;;;;14.27;9.13;;;19.70;99.90;;;;;;5033364;28;20699;-81
2022/07/21 02:13:24;;;;;;;23.67;9.80;;;19.90;99.90;;;;;;5015872;28;20199;-80
2022/07/21 02:15:50;;;;;;;13.57;9.80;;;20.00;99.90;;;;;;5015512;28;20640;-82
2022/07/21 02:18:15;;;;;;;10.70;9.38;;;20.10;99.90;;;;;;5033508;28;20617;-83
2022/07/21 02:20:41;;;;;;;14.43;9.35;;;20.10;99.90;;;;;;5033196;28;20679;-80
2022/07/21 02:23:07;;;;;;;16.25;8.95;;;20.10;99.90;;;;;;5033517;28;20191;-82
2022/07/21 02:25:32;;;;;;;15.57;9.57;;;20.10;99.90;;;;;;5033343;28;20175;-82
2022/07/21 02:27:58;;;;;;;14.80;10.35;;;20.10;99.90;;;;;;5015615;28;20175;-83
2022/07/21 02:30:24;;;;;;;13.10;9.57;;;19.90;99.90;;;;;;5032986;28;20555;-83
2022/07/21 02:32:49;;;;;;;11.98;9.65;;;19.90;99.90;;;;;;5015545;28;20164;-82
2022/07/21 02:35:15;;;;;;;13.50;8.77;;;19.90;99.90;;;;;;5032860;28;20372;-82
2022/07/21 02:37:41;;;;;;;15.95;8.65;;;19.90;99.90;;;;;;5033275;28;20565;-82
2022/07/21 02:40:07;;;;;;;11.30;8.73;;;20.10;99.90;;;;;;5032998;28;20192;-82
2022/07/21 02:42:33;;;;;;;17.17;9.55;;;20.20;99.90;;;;;;5032961;28;20247;-83
2022/07/21 02:44:58;;;;;;;12.23;7.97;;;20.10;99.90;;;;;;5032884;28;20251;-83
2022/07/21 02:47:24;;;;;;;12.13;8.15;;;20.00;99.90;;;;;;5032781;28;20206;-82
2022/07/21 02:49:50;;;;;;;10.43;8.10;;;19.90;99.90;;;;;;5032754;28;20188;-83
2022/07/21 02:52:15;;;;;;;7.88;7.15;;;20.00;99.90;;;;;;5015189;28;20225;-81
2022/07/21 02:54:41;;;;;;;8.70;7.85;;;20.00;99.90;;;;;;5032314;28;20253;-83
2022/07/21 02:57:06;;;;;;;16.40;7.93;;;20.10;99.90;;;;;;5032243;28;20243;-83
2022/07/21 02:59:32;;;;;;;15.57;7.32;;;20.00;99.90;;;;;;5015166;28;20210;-81
2022/07/21 03:01:58;;;;;;;14.65;7.13;;;20.00;99.90;;;;;;5033261;28;20167;-81
2022/07/21 03:04:23;;;;;;;11.80;7.95;;;19.90;99.90;;;;;;5015043;28;20200;-83
2022/07/21 03:06:49;;;;;;;13.60;7.60;;;20.00;99.90;;;;;;5032491;28;20175;-81
2022/07/21 03:09:14;;;;;;;15.05;6.70;;;19.90;99.90;;;;;;5014738;28;20171;-82
2022/07/21 03:11:40;;;;;;;14.55;6.90;;;19.90;99.90;;;;;;5032414;28;20195;-82
2022/07/21 03:14:06;;;;;;;7.18;6.32;;;19.60;99.90;;;;;;5032640;28;20230;-83
2022/07/21 03:16:31;;;;;;;7.40;6.70;;;19.70;99.90;;;;;;5014980;28;20255;-82
2022/07/21 03:18:57;;;;;;;14.45;7.75;;;19.80;99.90;;;;;;5032973;28;20226;-81
2022/07/21 03:21:23;;;;;;;10.25;6.88;;;19.80;99.90;;;;;;5033168;28;20647;-81
2022/07/21 03:23:48;;;;;;;17.55;6.55;;;19.90;99.90;;;;;;5033475;28;20674;-83
2022/07/21 03:26:15;;;;;;;13.20;6.55;;;20.00;99.90;;;;;;5036387;28;20172;-84
2022/07/21 03:28:42;;;;;;;14.50;7.05;;;20.10;99.90;;;;;;5037363;28;20176;-82
2022/07/21 03:31:08;;;;;;;8.77;6.93;;;20.10;99.90;;;;;;5035333;28;20640;-82
2022/07/21 03:33:34;;;;;;;16.60;6.88;;;20.00;99.90;;;;;;5017230;28;20237;-82
2022/07/21 03:36:01;;;;;;;13.55;6.55;;;20.00;99.90;;;;;;5036447;28;20160;-84
2022/07/21 03:38:27;;;;;;;19.77;7.25;;;20.00;99.90;;;;;;5017712;28;20187;-83
2022/07/21 03:40:53;;;;;;;7.40;6.65;;;20.00;99.90;;;;;;5002641;28;20192;-82
2022/07/21 03:43:19;;;;;;;9.43;6.75;;;20.00;99.90;;;;;;5036465;28;20187;-81
2022/07/21 03:45:44;;;;;;;15.23;7.20;;;19.90;99.90;;;;;;5037878;28;20156;-83
2022/07/21 03:48:10;;;;;;;10.95;7.20;;;19.80;99.90;;;;;;5019218;28;20652;-82
2022/07/21 03:50:39;;;;;;;9.07;6.88;;;19.70;99.90;;;;;;5020412;28;20187;-81
2022/07/21 03:53:05;;;;;;;10.18;7.13;;;19.70;99.90;;;;;;5037325;28;20168;-82
2022/07/21 03:55:31;;;;;;;8.48;7.68;;;19.70;99.90;;;;;;5037316;28;20274;-82
2022/07/21 03:58:03;;;;;;;18.20;8.07;;;19.70;99.90;;;;;;5037337;28;20632;-82
2022/07/21 04:00:35;;;;;;;14.73;8.35;;;19.80;99.90;;;;;;5017997;28;20192;-82
2022/07/21 04:03:01;;;;;;;13.63;7.80;;;19.80;99.90;;;;;;5034340;28;20168;-82
2022/07/21 04:05:28;;;;;;;11.20;8.27;;;19.80;99.90;;;;;;5035619;28;20164;-81
2022/07/21 04:07:54;;;;;;;8.18;7.38;;;19.90;99.90;;;;;;5017242;28;20526;-81
2022/07/21 04:10:27;;;;;;;10.00;8.32;;;19.90;99.90;;;;;;5039237;28;20559;-81
2022/07/21 04:12:55;;;;;;;8.82;7.88;;;20.00;99.90;;;;;;5040767;28;20172;-82
2022/07/21 04:15:20;;;;;;;17.95;8.68;;;20.10;99.90;;;;;;5040377;28;20225;-81
2022/07/21 04:17:47;;;;;;;14.48;8.57;;;20.30;99.90;;;;;;5039940;28;20231;-82
2022/07/21 04:20:13;;;;;;;13.38;8.88;;;20.40;99.90;;;;;;5037112;28;20271;-83
2022/07/21 04:22:41;;;;;;;10.07;7.95;;;20.30;99.90;;;;;;5036957;28;20560;-81
2022/07/21 04:25:07;;;;;;;16.20;8.63;;;20.20;99.90;;;;;;5038361;28;20640;-81
2022/07/21 04:27:34;;;;;;;22.48;8.55;;;20.10;99.90;;;;;;5037487;28;20167;-82
2022/07/21 04:29:59;;;;;;;19.60;8.77;;;20.20;99.90;;;;;;5036448;28;20195;-83
2022/07/21 04:32:25;;;;;;;16.05;9.55;;;20.30;99.90;;;;;;5036108;28;20160;-82
2022/07/21 04:34:52;;;;;;;9.55;8.60;;;20.30;99.90;;;;;;5036209;28;20208;-82
2022/07/21 04:37:18;;;;;;;16.55;9.85;;;20.40;99.90;;;;;;5036615;28;20194;-82
2022/07/21 04:39:44;;;;;;;12.70;9.88;;;20.30;99.90;;;;;;5036039;28;20192;-83
2022/07/21 04:42:09;;;;;;;14.55;9.20;;;20.30;99.90;;;;;;5035839;28;20172;-80
2022/07/21 04:44:35;;;;;;;12.13;9.88;;;20.20;99.90;;;;;;5035821;28;20183;-81
2022/07/21 04:47:01;;;;;;;18.05;10.32;;;20.20;99.90;;;;;;5036347;28;20570;-80
2022/07/21 04:49:26;;;;;;;15.20;9.23;;;20.30;99.90;;;;;;5036023;28;20560;-82
2022/07/21 04:51:52;;;;;;;19.65;9.98;;;20.40;99.90;;;;;;5036126;28;20175;-82
2022/07/21 04:54:17;;;;;;;20.13;10.18;;;20.30;99.90;;;;;;5035854;28;20286;-81
2022/07/21 04:56:44;;;;;;;15.65;9.52;;;20.40;99.90;;;;;;5036403;28;20214;-81
2022/07/21 04:59:10;;;;;;;11.13;10.00;;;20.50;99.90;;;;;;5036540;28;20168;-80
2022/07/21 05:01:38;;;;;;;21.25;10.43;;;20.50;99.90;;;;;;5035963;28;20275;-82
2022/07/21 05:04:04;;;;;;;17.33;10.32;;;20.40;99.90;;;;;;5018796;28;20180;-83
2022/07/21 05:06:30;;;;;;;18.33;10.98;;;20.30;99.90;;;;;;5036032;28;20175;-82
2022/07/21 05:08:55;;;;;;;24.42;9.95;;;20.40;99.90;;;;;;5035367;28;20172;-82
2022/07/21 05:11:21;;;;;;;17.48;11.45;;;20.40;99.90;;;;;;5034587;28;20184;-82
2022/07/21 05:13:47;;;;;;;18.23;10.70;;;20.30;99.90;;;;;;5034745;28;20211;-82
2022/07/21 05:16:12;;;;;;;15.32;11.45;;;20.10;99.90;;;;;;5034524;28;20213;-81
2022/07/21 05:18:38;;;;;;;13.80;11.65;;;20.00;99.90;;;;;;5035035;28;20623;-82
2022/07/21 05:21:04;;;;;;;16.63;11.23;;;19.90;99.90;;;;;;5034799;28;20237;-82
2022/07/21 05:23:29;;;;;;;18.75;11.40;;;20.00;99.90;;;;;;5034359;28;20197;-82
2022/07/21 05:25:55;;;;;;;17.70;11.30;;;20.00;99.90;;;;;;5034354;28;20178;-83
2022/07/21 05:28:21;;;;;;;24.95;12.27;;;20.00;99.90;;;;;;5034073;28;20179;-81
2022/07/21 05:30:46;;;;;;;16.25;11.88;;;20.00;99.90;;;;;;5033927;28;20191;-83
2022/07/21 05:33:12;;;;;;;20.15;13.10;;;20.00;99.90;;;;;;5034235;28;20612;-81
2022/07/21 05:35:38;;;;;;;22.10;12.20;;;20.10;99.90;;;;;;5034349;28;20171;-80
2022/07/21 05:38:03;;;;;;;24.88;12.68;;;20.20;99.90;;;;;;5034385;28;20671;-81
2022/07/21 05:40:29;;;;;;;27.13;12.60;;;20.30;99.90;;;;;;5016143;28;20196;-81
2022/07/21 05:42:55;;;;;;;17.77;12.55;;;20.30;99.90;;;;;;5034082;28;20164;-82
2022/07/21 05:45:20;;;;;;;18.63;12.88;;;20.30;99.90;;;;;;5016238;28;20698;-82
2022/07/21 05:47:46;;;;;;;16.48;11.93;;;20.20;99.90;;;;;;5016157;28;20191;-81
2022/07/21 05:50:12;;;;;;;18.23;11.98;;;20.20;99.90;;;;;;5040281;28;20179;-81
2022/07/21 05:52:39;;;;;;;18.95;12.55;;;20.20;99.90;;;;;;5035065;28;20218;-81
2022/07/21 05:55:06;;;;;;;31.23;13.75;;;20.20;99.90;;;;;;5018132;28;20739;-82
2022/07/21 05:57:32;;;;;;;19.83;12.63;;;20.20;99.90;;;;;;5035429;28;20206;-82
2022/07/21 05:59:58;;;;;;;25.98;13.52;;;20.10;99.90;;;;;;5017647;28;20687;-82
2022/07/21 06:02:26;;;;;;;18.63;13.38;;;19.90;99.90;;;;;;5035655;28;20164;-80
2022/07/21 06:04:52;;;;;;;33.35;14.70;;;20.00;99.90;;;;;;5036810;28;20163;-81
2022/07/21 06:07:18;;;;;;;19.80;13.82;;;20.00;99.90;;;;;;5035234;28;20168;-81
2022/07/21 06:09:43;;;;;;;17.42;13.68;;;20.00;99.90;;;;;;5033013;28;20242;-80
2022/07/21 06:12:09;;;;;;;19.58;13.95;;;19.90;99.90;;;;;;5033740;28;20172;-80
2022/07/21 06:14:35;;;;;;;21.13;14.40;;;19.90;99.90;;;;;;5015688;28;20239;-80
2022/07/21 06:17:00;;;;;;;22.42;13.90;;;19.90;99.90;;;;;;5015633;28;20226;-80
2022/07/21 06:19:26;;;;;;;21.75;14.02;;;19.80;99.90;;;;;;5033242;28;20180;-81
2022/07/21 06:21:52;;;;;;;25.83;13.98;;;19.90;99.90;;;;;;5033135;28;20183;-81
2022/07/21 06:24:19;;;;;;;17.90;14.10;;;19.70;99.90;;;;;;5033288;28;20222;-81
2022/07/21 06:26:45;;;;;;;26.80;14.20;;;19.70;99.90;;;;;;5015506;28;20518;-82
2022/07/21 06:29:10;;;;;;;25.40;15.75;;;19.60;99.90;;;;;;5033883;28;20230;-81
2022/07/21 06:31:40;;;;;;;33.25;14.60;;;19.70;99.90;;;;;;5015924;28;20187;-81
2022/07/21 06:34:07;;;;;;;27.30;15.38;;;19.90;99.90;;;;;;5039688;28;20623;-83
2022/07/21 06:36:34;;;;;;;23.30;16.00;;;19.70;99.90;;;;;;5022231;28;20183;-81
2022/07/21 06:39:00;;;;;;;24.52;15.70;;;19.60;99.90;;;;;;5041025;28;20187;-81
2022/07/21 06:41:25;;;;;;;26.83;15.88;;;19.60;99.90;;;;;;5018859;28;20687;-82
2022/07/21 06:43:51;;;;;;;29.38;17.67;;;19.60;99.90;;;;;;5036998;28;20648;-82
2022/07/21 06:46:17;;;;;;;35.22;16.92;;;19.60;99.90;;;;;;5024587;28;20166;-81
2022/07/21 06:48:42;;;;;;;34.25;18.48;;;19.70;99.90;;;;;;5037402;28;20172;-81
2022/07/21 06:51:08;;;;;;;36.90;18.08;;;19.80;99.90;;;;;;5033393;28;20179;-83
2022/07/21 06:53:33;;;;;;;34.30;18.77;;;19.70;99.90;;;;;;5032841;28;20207;-82
2022/07/21 06:55:59;;;;;;;40.63;21.52;;;20.00;99.90;;;;;;5032747;28;20226;-82
2022/07/21 06:58:24;;;;;;;44.80;21.23;;;19.90;99.90;;;;;;5034266;28;20179;-82
2022/07/21 07:00:51;;;;;;;36.00;20.70;;;19.80;99.90;;;;;;5033191;28;20686;-83
2022/07/21 07:03:18;;;;;;;52.35;19.80;;;19.80;99.90;;;;;;5032693;28;20210;-82
2022/07/21 07:05:45;;;;;;;39.00;21.25;;;19.90;99.90;;;;;;5034425;28;20160;-81
2022/07/21 07:08:12;;;;;;;42.22;22.17;;;19.90;99.90;;;;;;5033274;28;20225;-81
2022/07/21 07:10:39;;;;;;;37.88;21.45;;;20.00;99.90;;;;;;5032741;28;20529;-81
2022/07/21 07:13:05;;;;;;;39.60;20.85;;;19.90;99.90;;;;;;5032564;28;20604;-81
2022/07/21 07:15:30;;;;;;;38.40;21.63;;;20.00;99.90;;;;;;5032614;28;20186;-81
2022/07/21 07:17:56;;;;;;;40.38;21.83;;;20.00;99.90;;;;;;5032647;28;20206;-81
2022/07/21 07:20:22;;;;;;;44.88;21.20;;;19.80;99.90;;;;;;5032420;28;20187;-81
2022/07/21 07:22:48;;;;;;;48.33;23.52;;;19.90;99.90;;;;;;5032235;28;20187;-82
2022/07/21 07:25:17;;;;;;;50.33;21.92;;;20.00;99.90;;;;;;5014918;28;20543;-83
2022/07/21 07:27:48;;;;;;;40.78;22.70;;;20.00;99.90;;;;;;5015065;28;20576;-82
2022/07/21 07:30:15;;;;;;;43.22;21.10;;;19.90;99.90;;;;;;5014576;28;20245;-81
2022/07/21 07:32:41;;;;;;;47.15;22.05;;;19.90;99.90;;;;;;5014446;28;20167;-81
2022/07/21 07:35:11;;;;;;;45.60;21.33;;;20.00;99.90;;;;;;5014542;28;20656;-82
2022/07/21 07:37:38;;;;;;;41.40;21.00;;;19.80;99.90;;;;;;5032227;28;20172;-82
2022/07/21 07:40:07;;;;;;;42.90;21.90;;;19.80;99.90;;;;;;5032295;28;20564;-81
2022/07/21 07:42:34;;;;;;;49.35;20.50;;;19.90;99.90;;;;;;5032565;28;20174;-82
2022/07/21 07:44:59;;;;;;;34.03;20.95;;;20.00;99.90;;;;;;5036513;28;20194;-81
2022/07/21 07:47:25;;;;;;;37.28;20.95;;;20.10;99.90;;;;;;5036206;28;20167;-82
2022/07/21 07:49:52;;;;;;;55.63;30.75;;;20.30;99.90;;;;;;5036301;28;20215;-81
2022/07/21 07:52:19;;;;;;;75.28;38.47;;;20.20;99.90;;;;;;5036259;28;20214;-83
2022/07/21 07:54:44;;;;;;;83.82;42.10;;;20.20;99.90;;;;;;5035970;28;20222;-82
2022/07/21 07:57:10;;;;;;;63.95;32.55;;;20.30;99.90;;;;;;5018384;28;20200;-82
2022/07/21 07:59:36;;;;;;;75.90;35.13;;;20.30;99.90;;;;;;5035525;28;20171;-82
2022/07/21 08:02:01;;;;;;;91.32;51.00;;;20.20;99.90;;;;;;5035684;28;20617;-81
2022/07/21 08:04:27;;;;;;;57.25;33.72;;;20.10;99.90;;;;;;5035887;28;20175;-82
2022/07/21 08:06:53;;;;;;;58.85;32.22;;;20.10;99.90;;;;;;5018063;28;20203;-83
2022/07/21 08:09:19;;;;;;;34.22;19.60;;;20.00;99.90;;;;;;5035809;28;20647;-82
2022/07/21 08:11:46;;;;;;;36.10;21.10;;;20.10;99.90;;;;;;5035686;28;20160;-81
2022/07/21 08:14:13;;;;;;;30.75;17.10;;;20.00;99.90;;;;;;5035701;28;20196;-82
2022/07/21 08:16:38;;;;;;;26.00;16.23;;;19.90;99.90;;;;;;5036408;28;20171;-83
2022/07/21 08:19:04;;;;;;;18.85;13.93;;;19.90;99.90;;;;;;5037208;28;20164;-82
2022/07/21 08:21:30;;;;;;;22.63;15.07;;;19.70;99.90;;;;;;5037573;28;20239;-83
2022/07/21 08:23:57;;;;;;;18.60;13.77;;;19.70;99.90;;;;;;5037912;28;20160;-81
2022/07/21 08:26:24;;;;;;;22.40;14.93;;;19.70;99.90;;;;;;5020828;28;20183;-81
2022/07/21 08:28:50;;;;;;;23.38;14.35;;;19.70;99.90;;;;;;5038516;28;20199;-81
2022/07/21 08:31:15;;;;;;;15.43;12.85;;;19.60;99.90;;;;;;5046943;28;20557;-81
2022/07/21 08:33:41;;;;;;;19.70;13.07;;;19.60;99.90;;;;;;5057990;28;20199;-80
2022/07/21 08:36:07;;;;;;;18.05;13.38;;;19.70;99.90;;;;;;5031214;28;20199;-81
2022/07/21 08:38:32;;;;;;;15.65;12.65;;;19.90;99.90;;;;;;5042371;28;20172;-82
2022/07/21 08:40:58;;;;;;;16.33;12.23;;;20.00;99.90;;;;;;5056109;28;20188;-81
2022/07/21 08:43:24;;;;;;;21.73;12.38;;;19.90;99.90;;;;;;5056302;28;20182;-82
2022/07/21 08:45:50;;;;;;;17.77;11.40;;;19.90;99.90;;;;;;5032796;28;20172;-81
2022/07/21 08:48:21;;;;;;;14.95;11.77;;;19.80;99.90;;;;;;5039179;28;20306;-83
2022/07/21 08:50:47;;;;;;;15.48;10.57;;;19.80;99.90;;;;;;5037001;28;20680;-81
2022/07/21 08:53:13;;;;;;;14.43;10.15;;;19.80;99.90;;;;;;5035611;28;20245;-82
2022/07/21 08:55:41;;;;;;;15.23;9.48;;;19.90;99.90;;;;;;5043057;28;20536;-81
2022/07/21 08:58:08;;;;;;;10.07;9.00;;;19.90;99.90;;;;;;5036548;28;20251;-82
2022/07/21 09:00:36;;;;;;;10.20;8.68;;;19.80;99.90;;;;;;5034988;28;20202;-81
2022/07/21 09:03:23;;;;;;;10.45;9.10;;;19.90;99.90;;;;;;5034844;28;20168;-81
2022/07/21 09:06:07;;;;;;;16.35;9.00;;;19.90;99.90;;;;;;5035328;28;20214;-82
2022/07/21 09:08:50;;;;;;;11.38;8.70;;;20.00;99.90;;;;;;5035053;28;20168;-81
2022/07/21 09:11:16;;;;;;;7.72;7.10;;;20.00;99.90;;;;;;5034641;28;20193;-82
2022/07/21 09:13:43;;;;;;;9.00;7.38;;;20.00;99.90;;;;;;5035011;28;20556;-82
2022/07/21 09:16:09;;;;;;;8.15;7.35;;;19.90;99.90;;;;;;5036419;28;20171;-81
2022/07/21 09:18:47;;;;;;;10.32;7.55;;;20.00;99.90;;;;;;5018666;28;20167;-82
2022/07/21 09:21:15;;;;;;;15.32;7.72;;;19.90;99.90;;;;;;5034719;28;20184;-82
2022/07/21 09:23:41;;;;;;;7.95;6.47;;;19.80;99.90;;;;;;5034562;28;20295;-83
2022/07/21 09:26:07;;;;;;;8.05;6.95;;;19.80;99.90;;;;;;5016621;28;20203;-82
2022/07/21 09:28:33;;;;;;;8.57;6.72;;;19.90;99.90;;;;;;5016793;28;20191;-82
2022/07/21 09:31:07;;;;;;;8.88;7.82;;;19.90;99.90;;;;;;5016716;28;20586;-82
2022/07/21 09:33:38;;;;;;;9.23;6.57;;;19.90;99.90;;;;;;5034207;28;20188;-82
2022/07/21 09:36:11;;;;;;;7.03;6.32;;;20.00;99.90;;;;;;5034049;28;20172;-81
2022/07/21 09:38:38;;;;;;;7.20;5.45;;;20.00;99.90;;;;;;5034277;28;20648;-81
2022/07/21 09:41:25;;;;;;;6.57;6.00;;;20.00;99.90;;;;;;5034095;28;20742;-82
2022/07/21 09:43:55;;;;;;;10.18;5.97;;;20.00;99.90;;;;;;5033685;28;20207;-81
2022/07/21 09:46:29;;;;;;;9.52;6.90;;;20.00;99.90;;;;;;5015904;28;20167;-82
2022/07/21 09:48:58;;;;;;;6.50;5.82;;;20.00;99.90;;;;;;5033948;28;20163;-82
2022/07/21 09:51:25;;;;;;;9.57;5.72;;;19.90;99.90;;;;;;5034084;28;20261;-81
2022/07/21 09:53:58;;;;;;;6.55;5.90;;;19.90;99.90;;;;;;5016283;28;20762;-82
2022/07/21 09:56:25;;;;;;;5.95;4.93;;;19.90;99.90;;;;;;5033642;28;20243;-81
2022/07/21 09:58:53;;;;;;;6.80;5.07;;;19.90;99.90;;;;;;5033827;28;20259;-82
2022/07/21 10:01:19;;;;;;;5.80;5.30;;;19.90;99.90;;;;;;5034774;28;20187;-82
2022/07/21 10:03:46;;;;;;;9.75;5.50;;;20.00;99.90;;;;;;5036647;28;20264;-81
2022/07/21 10:06:14;;;;;;;6.60;4.93;;;20.10;99.90;;;;;;5036485;28;20164;-81
2022/07/21 10:08:42;;;;;;;7.50;6.82;;;20.30;99.90;;;;;;5033992;28;20655;-80
2022/07/21 10:11:08;;;;;;;6.80;6.13;;;20.60;99.90;;;;;;5033302;28;20186;-80
2022/07/21 10:13:34;;;;;;;5.82;5.18;;;20.70;99.90;;;;;;5033444;28;20199;-80
2022/07/21 10:16:01;;;;;;;7.25;5.50;;;20.90;99.90;;;;;;5033312;28;20168;-80
2022/07/21 10:18:30;;;;;;;7.97;5.55;;;20.90;99.90;;;;;;5033704;28;20184;-81
2022/07/21 10:21:16;;;;;;;5.82;5.25;;;20.80;99.90;;;;;;5015921;28;20690;-82
2022/07/21 10:23:42;;;;;;;5.80;5.22;;;20.70;99.90;;;;;;5015998;28;20724;-80
2022/07/21 10:26:10;;;;;;;8.35;5.45;;;20.80;99.90;;;;;;5034280;28;20527;-82
2022/07/21 10:28:36;;;;;;;5.55;4.90;;;20.80;99.90;;;;;;4999775;28;20179;-82
2022/07/21 10:31:14;;;;;;;6.35;4.63;;;20.60;99.90;;;;;;5033689;28;20184;-82
2022/07/21 10:33:49;;;;;;;7.18;5.63;;;20.50;99.90;;;;;;5033615;28;20202;-82
2022/07/21 10:36:27;;;;;;;15.10;5.70;;;20.50;99.90;;;;;;5033235;28;20167;-80
2022/07/21 10:39:17;;;;;;;14.77;6.03;;;20.60;99.90;;;;;;5016093;28;20171;-80
2022/07/21 10:41:55;;;;;;;8.10;5.82;;;20.60;99.90;;;;;;5015993;28;20207;-81
2022/07/21 10:44:30;;;;;;;11.75;5.57;;;20.40;99.90;;;;;;5015690;28;20168;-81
2022/07/21 10:47:05;;;;;;;6.75;5.28;;;20.30;99.90;;;;;;5015782;28;20582;-81
2022/07/21 10:49:44;;;;;;;9.35;5.63;;;20.40;99.90;;;;;;5033571;28;20179;-82
2022/07/21 10:52:34;;;;;;;7.78;5.78;;;20.50;99.90;;;;;;5033443;28;20171;-82
2022/07/21 10:55:26;;;;;;;11.38;5.25;;;20.80;99.90;;;;;;5015233;28;20203;-82
2022/07/21 10:58:25;;;;;;;10.70;5.68;;;21.10;99.90;;;;;;5015539;28;20259;-80
2022/07/21 11:00:51;;;;;;;12.23;6.85;;;21.30;99.90;;;;;;5004084;28;20196;-81
2022/07/21 11:03:27;;;;;;;15.50;5.53;;;21.70;99.90;;;;;;5032821;28;20659;-81
2022/07/21 11:06:13;;;;;;;13.52;4.93;;;21.90;99.90;;;;;;5033017;28;20262;-81
2022/07/21 11:08:48;;;;;;;9.60;5.22;;;22.30;99.90;;;;;;5032725;28;20239;-82
2022/07/21 11:11:16;;;;;;;8.30;4.68;;;22.30;99.90;;;;;;5014711;28;20229;-82
2022/07/21 11:14:03;;;;;;;7.68;4.47;;;22.30;99.90;;;;;;5014800;28;20726;-80
2022/07/21 11:16:52;;;;;;;7.68;4.78;;;22.20;99.90;;;;;;5032370;28;20175;-81
2022/07/21 11:19:49;;;;;;;8.18;5.68;;;22.10;99.90;;;;;;5032293;28;20575;-81
2022/07/21 11:22:29;;;;;;;8.88;5.30;;;21.90;99.90;;;;;;5015561;28;20270;-81
2022/07/21 11:25:00;;;;;;;9.68;5.47;;;21.50;99.90;;;;;;5032400;28;20168;-83
2022/07/21 11:27:28;;;;;;;9.00;5.00;;;21.30;99.90;;;;;;5032397;28;20258;-82
2022/07/21 11:29:58;;;;;;;10.57;5.10;;;21.00;99.90;;;;;;5014647;28;20199;-82
2022/07/21 11:32:24;;;;;;;6.00;5.18;;;20.90;99.90;;;;;;5032463;28;20175;-82
2022/07/21 11:34:53;;;;;;;11.73;5.97;;;20.80;99.90;;;;;;5032585;28;20204;-82
2022/07/21 11:37:28;;;;;;;12.27;5.90;;;20.60;99.90;;;;;;5014964;28;20168;-81
2022/07/21 11:39:53;;;;;;;15.68;6.50;;;20.70;99.90;;;;;;5032578;28;20191;-81
2022/07/21 11:42:20;;;;;;;15.88;5.20;;;20.80;99.90;;;;;;5032852;28;20175;-83
2022/07/21 11:44:46;;;;;;;6.80;4.25;;;21.00;99.90;;;;;;5032976;28;20247;-82
2022/07/21 11:47:14;;;;;;;10.70;4.40;;;20.80;99.90;;;;;;5033046;28;20168;-83
2022/07/21 11:49:41;;;;;;;10.63;3.50;;;20.70;99.90;;;;;;5015274;28;20721;-83
2022/07/21 11:52:12;;;;;;;6.07;3.72;;;20.60;99.90;;;;;;5014698;28;20172;-82
2022/07/21 11:54:46;;;;;;;6.60;4.05;;;20.70;99.90;;;;;;5033719;28;20212;-82
2022/07/21 11:57:13;;;;;;;5.90;2.90;;;20.70;99.90;;;;;;5016088;28;20207;-82
2022/07/21 11:59:42;;;;;;;10.77;3.35;;;20.60;99.90;;;;;;5032243;28;20200;-82
2022/07/21 12:02:13;;;;;;;2.90;2.60;;;20.90;99.90;;;;;;5033569;28;20196;-82
2022/07/21 12:04:53;;;;;;;6.70;3.00;;;21.10;99.90;;;;;;5033017;28;20254;-82
2022/07/21 12:07:31;;;;;;;6.60;3.72;;;21.20;99.90;;;;;;5020884;28;20206;-81
2022/07/21 12:10:24;;;;;;;8.82;3.38;;;21.30;99.90;;;;;;5037326;28;20235;-82
2022/07/21 12:12:51;;;;;;;7.25;2.75;;;21.40;99.90;;;;;;5019742;28;20180;-81
2022/07/21 12:15:30;;;;;;;6.60;2.75;;;21.50;99.90;;;;;;5021411;28;20204;-82
2022/07/21 12:17:59;;;;;;;11.63;2.75;;;21.60;99.90;;;;;;5035269;28;20168;-82
2022/07/21 12:20:36;;;;;;;7.10;2.60;;;21.70;99.90;;;;;;5014566;28;20619;-83
2022/07/21 12:23:28;;;;;;;7.53;2.55;;;21.50;99.90;;;;;;5031920;28;20262;-82
2022/07/21 12:25:56;;;;;;;5.68;3.42;;;21.40;99.90;;;;;;5014156;28;20218;-83
2022/07/21 12:28:53;;;;;;;6.65;3.20;;;21.20;99.90;;;;;;5033530;28;20168;-81
2022/07/21 12:31:20;;;;;;;4.07;3.33;;;21.20;99.90;;;;;;5035366;28;20274;-81
2022/07/21 12:33:48;;;;;;;4.07;2.58;;;21.10;99.90;;;;;;5017623;28;20602;-82
2022/07/21 12:36:14;;;;;;;17.27;4.45;;;21.00;99.90;;;;;;5035564;28;20177;-82
2022/07/21 12:38:41;;;;;;;9.15;5.82;;;20.90;99.90;;;;;;5034960;28;20213;-82
2022/07/21 12:41:09;;;;;;;7.05;3.65;;;20.70;99.90;;;;;;5035380;28;20652;-81
2022/07/21 12:43:35;;;;;;;13.98;4.18;;;20.80;99.90;;;;;;5017331;28;20164;-83